Time;durP1;ratioP1;P1;durP2;ratioP2;P2;SDS_P1;SDS_P2;PMS_P1;PMS_P2;Temp;Humidity;BMP_temperature;BMP_pressure;BME280_temperature;BME280_humidity;BME280_pressure;Samples;Min_cycle;Max_cycle;Signal;HPM_P1;HPM_P2
2023/07/15 00:00:53;;;;;;;6.53;1.50;;;16.20;99.90;;;;;;5132777;27;20023;-42
2023/07/15 00:03:20;;;;;;;9.57;1.27;;;16.20;99.90;;;;;;5132722;27;20019;-42
2023/07/15 00:05:47;;;;;;;5.13;1.42;;;16.20;99.90;;;;;;5132757;27;20065;-48
2023/07/15 00:08:13;;;;;;;6.68;1.70;;;16.20;99.90;;;;;;5132292;27;20106;-48
2023/07/15 00:10:42;;;;;;;4.03;1.30;;;16.10;99.90;;;;;;5132200;27;20050;-47
2023/07/15 00:13:13;;;;;;;9.73;1.70;;;16.10;99.90;;;;;;5132178;27;20035;-44
2023/07/15 00:15:40;;;;;;;4.97;1.30;;;16.10;99.90;;;;;;5132326;27;20042;-49
2023/07/15 00:18:06;;;;;;;4.13;1.35;;;16.10;99.90;;;;;;5132049;27;20023;-43
2023/07/15 00:20:32;;;;;;;6.10;1.45;;;16.00;99.90;;;;;;5132215;27;20023;-43
2023/07/15 00:22:57;;;;;;;8.38;1.40;;;16.00;99.90;;;;;;5132192;27;20019;-42
2023/07/15 00:25:25;;;;;;;4.13;1.15;;;16.00;99.90;;;;;;5131778;27;20028;-45
2023/07/15 00:27:50;;;;;;;7.78;1.77;;;16.00;99.90;;;;;;5132321;27;20098;-42
2023/07/15 00:30:17;;;;;;;5.55;1.83;;;15.90;99.90;;;;;;5131894;27;20058;-45
2023/07/15 00:32:47;;;;;;;9.30;1.50;;;15.90;99.90;;;;;;5116500;27;20472;-43
2023/07/15 00:35:23;;;;;;;8.57;1.73;;;16.00;99.90;;;;;;5132057;27;20054;-42
2023/07/15 00:37:49;;;;;;;7.03;1.45;;;15.90;99.90;;;;;;5131872;27;20611;-45
2023/07/15 00:40:15;;;;;;;8.85;1.55;;;16.00;99.90;;;;;;5131779;27;20027;-48
2023/07/15 00:42:51;;;;;;;5.13;1.35;;;16.00;99.90;;;;;;5131568;27;20031;-47
2023/07/15 00:45:17;;;;;;;9.00;1.45;;;16.00;99.90;;;;;;5131974;27;20019;-47
2023/07/15 00:47:50;;;;;;;5.45;1.65;;;16.00;99.90;;;;;;5131611;27;20019;-45
2023/07/15 00:50:16;;;;;;;5.45;1.17;;;15.90;99.90;;;;;;5131771;27;20021;-44
2023/07/15 00:52:41;;;;;;;6.03;2.10;;;15.90;99.90;;;;;;5131587;27;20435;-44
2023/07/15 00:55:08;;;;;;;6.93;1.63;;;15.90;99.90;;;;;;5129974;27;20104;-47
2023/07/15 00:57:34;;;;;;;9.98;1.83;;;15.90;99.90;;;;;;5130332;27;20119;-53
2023/07/15 01:00:00;;;;;;;10.57;1.75;;;15.90;99.90;;;;;;5131637;27;20050;-53
2023/07/15 01:02:26;;;;;;;6.88;1.80;;;15.90;99.90;;;;;;5131756;27;20117;-45
2023/07/15 01:04:52;;;;;;;2.15;1.27;;;15.90;99.90;;;;;;5130758;27;20660;-42
2023/07/15 01:07:18;;;;;;;3.70;1.48;;;15.90;99.90;;;;;;5131722;27;20033;-46
2023/07/15 01:09:44;;;;;;;10.15;1.85;;;15.80;99.90;;;;;;5131399;27;20119;-47
2023/07/15 01:12:09;;;;;;;8.15;1.60;;;15.90;99.90;;;;;;5131239;27;20019;-45
2023/07/15 01:14:36;;;;;;;10.15;1.45;;;15.80;99.90;;;;;;5131390;27;20026;-49
2023/07/15 01:17:02;;;;;;;2.95;1.20;;;15.90;99.90;;;;;;5131128;27;20092;-45
2023/07/15 01:19:27;;;;;;;2.95;1.40;;;15.80;99.90;;;;;;5131346;27;20027;-53
2023/07/15 01:21:53;;;;;;;6.43;1.80;;;15.80;99.90;;;;;;5129852;27;20382;-41
2023/07/15 01:24:21;;;;;;;9.85;1.85;;;15.90;99.90;;;;;;5131316;27;20119;-50
2023/07/15 01:26:47;;;;;;;4.45;1.27;;;15.90;99.90;;;;;;5131046;27;20056;-46
2023/07/15 01:29:16;;;;;;;9.75;1.92;;;15.90;99.90;;;;;;5131270;27;20058;-41
2023/07/15 01:31:44;;;;;;;10.48;1.58;;;15.90;99.90;;;;;;5131254;27;20015;-44
2023/07/15 01:34:10;;;;;;;15.27;2.00;;;15.80;99.90;;;;;;5131078;27;20038;-42
2023/07/15 01:36:36;;;;;;;9.45;1.92;;;15.80;99.90;;;;;;5131051;27;20400;-45
2023/07/15 01:39:03;;;;;;;6.03;1.17;;;15.80;99.90;;;;;;5130922;27;20368;-44
2023/07/15 01:41:28;;;;;;;3.50;1.45;;;15.80;99.90;;;;;;5130966;27;20060;-50
2023/07/15 01:43:54;;;;;;;4.95;1.58;;;15.90;99.90;;;;;;5130898;27;20030;-48
2023/07/15 01:46:19;;;;;;;10.98;1.65;;;15.90;99.90;;;;;;5131004;27;20031;-46
2023/07/15 01:48:45;;;;;;;5.72;1.55;;;16.00;99.90;;;;;;5131105;27;20063;-46
2023/07/15 01:51:11;;;;;;;6.70;1.63;;;16.00;99.90;;;;;;5130989;27;20027;-43
2023/07/15 01:53:36;;;;;;;7.80;1.48;;;16.00;99.90;;;;;;5130870;27;20475;-43
2023/07/15 01:56:02;;;;;;;5.30;2.00;;;16.00;99.90;;;;;;5130580;27;20027;-43
2023/07/15 01:58:28;;;;;;;4.18;1.25;;;16.10;99.90;;;;;;5131134;27;20019;-42
2023/07/15 02:00:53;;;;;;;5.97;1.65;;;16.10;99.90;;;;;;5130856;27;20069;-46
2023/07/15 02:03:19;;;;;;;5.03;1.40;;;16.10;99.90;;;;;;5116539;27;20695;-43
2023/07/15 02:05:44;;;;;;;14.65;1.98;;;16.20;99.90;;;;;;5130914;27;20484;-45
2023/07/15 02:08:10;;;;;;;5.13;1.63;;;16.20;99.90;;;;;;5130761;27;20027;-43
2023/07/15 02:10:36;;;;;;;8.25;1.80;;;16.20;99.90;;;;;;5130820;27;20536;-43
2023/07/15 02:13:01;;;;;;;6.75;1.92;;;16.20;99.90;;;;;;5130674;27;20019;-43
2023/07/15 02:15:27;;;;;;;6.75;1.40;;;16.20;99.90;;;;;;5131862;27;20035;-46
2023/07/15 02:17:54;;;;;;;9.02;1.40;;;16.20;99.90;;;;;;5134508;27;20429;-42
2023/07/15 02:20:21;;;;;;;5.88;1.35;;;16.20;99.90;;;;;;5134493;27;20510;-46
2023/07/15 02:22:46;;;;;;;3.22;1.10;;;16.20;99.90;;;;;;5130370;27;20054;-46
2023/07/15 02:25:12;;;;;;;7.72;1.95;;;16.30;99.90;;;;;;5130902;27;20097;-43
2023/07/15 02:27:38;;;;;;;3.03;1.25;;;16.30;99.90;;;;;;5139644;27;20022;-44
2023/07/15 02:30:08;;;;;;;7.18;1.55;;;16.30;99.90;;;;;;5145201;27;20361;-41
2023/07/15 02:32:43;;;;;;;7.05;1.38;;;16.30;99.90;;;;;;5135054;27;20106;-42
2023/07/15 02:35:10;;;;;;;9.38;1.90;;;16.30;99.90;;;;;;5130639;27;20048;-48
2023/07/15 02:37:40;;;;;;;6.95;1.52;;;16.30;99.90;;;;;;5136297;27;20543;-50
2023/07/15 02:40:10;;;;;;;5.68;1.50;;;16.30;99.90;;;;;;5147401;27;20030;-45
2023/07/15 02:42:36;;;;;;;;;;;16.20;99.90;;;;;;5136944;27;20162;-43
2023/07/15 02:45:06;;;;;;;12.70;2.30;;;16.20;99.90;;;;;;5135557;27;19919;-44
2023/07/15 02:47:32;;;;;;;6.18;1.75;;;16.30;99.90;;;;;;5138934;27;20102;-48
2023/07/15 02:50:00;;;;;;;6.65;1.45;;;16.20;99.90;;;;;;5129583;27;20072;-56
2023/07/15 02:52:26;;;;;;;8.02;1.92;;;16.20;99.90;;;;;;5133902;27;20015;-50
2023/07/15 02:54:51;;;;;;;10.43;1.27;;;16.20;99.90;;;;;;5133846;27;20422;-49
2023/07/15 02:57:17;;;;;;;14.27;1.77;;;16.20;99.90;;;;;;5151462;27;20558;-51
2023/07/15 02:59:42;;;;;;;4.63;1.27;;;16.20;99.90;;;;;;5152958;27;20034;-48
2023/07/15 03:02:10;;;;;;;8.40;1.67;;;16.20;99.90;;;;;;5154307;27;20481;-46
2023/07/15 03:04:37;;;;;;;5.55;1.17;;;16.20;99.90;;;;;;5154460;27;20053;-53
2023/07/15 03:07:02;;;;;;;5.93;2.05;;;16.20;99.90;;;;;;5154380;27;20018;-52
2023/07/15 03:09:28;;;;;;;5.70;1.27;;;16.20;99.90;;;;;;5154105;27;20027;-45
2023/07/15 03:11:54;;;;;;;9.63;1.38;;;16.20;99.90;;;;;;5142167;27;20015;-43
2023/07/15 03:14:19;;;;;;;9.63;1.98;;;16.20;99.90;;;;;;5151135;27;20027;-46
2023/07/15 03:16:45;;;;;;;9.48;1.52;;;16.20;99.90;;;;;;5153970;27;20042;-42
2023/07/15 03:19:11;;;;;;;4.82;1.25;;;16.20;99.90;;;;;;5152737;27;20055;-43
2023/07/15 03:21:38;;;;;;;11.05;2.33;;;16.20;99.90;;;;;;5154140;27;20023;-44
2023/07/15 03:24:04;;;;;;;5.85;1.80;;;16.20;99.90;;;;;;5152499;27;20394;-42
2023/07/15 03:26:30;;;;;;;9.07;1.33;;;16.20;99.90;;;;;;5153390;27;20015;-42
2023/07/15 03:28:57;;;;;;;5.05;1.50;;;16.20;99.90;;;;;;5152211;27;20030;-44
2023/07/15 03:31:23;;;;;;;5.85;1.45;;;16.20;99.90;;;;;;5153655;27;20017;-46
2023/07/15 03:33:51;;;;;;;4.75;1.42;;;16.20;99.90;;;;;;5153947;27;20023;-45
2023/07/15 03:36:17;;;;;;;2.85;1.40;;;16.20;99.90;;;;;;5153559;27;20034;-42
2023/07/15 03:38:43;;;;;;;6.88;1.23;;;16.30;99.90;;;;;;5153728;27;20364;-45
2023/07/15 03:41:08;;;;;;;7.13;1.45;;;16.30;99.90;;;;;;5153197;27;20034;-43
2023/07/15 03:43:34;;;;;;;3.47;1.30;;;16.20;99.90;;;;;;5152430;27;20021;-42
2023/07/15 03:45:59;;;;;;;2.72;1.17;;;16.20;99.90;;;;;;5141939;27;20286;-42
2023/07/15 03:48:25;;;;;;;6.82;1.20;;;16.20;99.90;;;;;;5150341;27;20428;-47
2023/07/15 03:50:51;;;;;;;2.65;1.30;;;16.30;99.90;;;;;;5152193;27;20030;-47
2023/07/15 03:53:16;;;;;;;5.20;1.92;;;16.30;99.90;;;;;;5153143;27;20023;-46
2023/07/15 03:55:42;;;;;;;7.75;1.65;;;16.30;99.90;;;;;;5153116;27;20054;-42
2023/07/15 03:58:09;;;;;;;4.80;0.98;;;16.30;99.90;;;;;;5153209;27;20071;-45
2023/07/15 04:00:34;;;;;;;3.45;1.30;;;16.30;99.90;;;;;;5153125;27;20090;-47
2023/07/15 04:03:01;;;;;;;6.40;2.00;;;16.30;99.90;;;;;;5151933;27;20113;-46
2023/07/15 04:05:27;;;;;;;12.50;1.85;;;16.30;99.90;;;;;;5152923;27;20011;-43
2023/07/15 04:07:53;;;;;;;3.30;0.82;;;16.40;99.90;;;;;;5153144;27;20038;-47
2023/07/15 04:10:19;;;;;;;9.65;1.02;;;16.40;99.90;;;;;;5152849;27;20098;-46
2023/07/15 04:12:45;;;;;;;3.15;1.10;;;16.40;99.90;;;;;;5152977;27;20091;-42
2023/07/15 04:15:10;;;;;;;6.53;1.45;;;16.40;99.90;;;;;;5152882;27;20216;-45
2023/07/15 04:17:36;;;;;;;6.65;1.95;;;16.40;99.90;;;;;;5152895;27;20023;-45
2023/07/15 04:20:10;;;;;;;6.97;1.30;;;16.40;99.90;;;;;;5152905;27;20095;-52
2023/07/15 04:22:37;;;;;;;2.83;1.13;;;16.50;99.90;;;;;;5152761;27;20098;-41
2023/07/15 04:25:03;;;;;;;6.78;1.45;;;16.50;99.90;;;;;;5152891;27;20095;-41
2023/07/15 04:27:29;;;;;;;7.57;1.30;;;16.50;99.90;;;;;;5152634;27;20030;-43
2023/07/15 04:29:54;;;;;;;4.65;1.13;;;16.50;99.90;;;;;;5152591;27;20007;-43
2023/07/15 04:32:20;;;;;;;2.60;1.10;;;16.50;99.90;;;;;;5152245;27;20069;-44
2023/07/15 04:34:49;;;;;;;5.53;1.55;;;16.50;99.90;;;;;;5152569;27;20010;-42
2023/07/15 04:37:17;;;;;;;7.70;2.10;;;16.50;99.90;;;;;;5152251;27;20075;-45
2023/07/15 04:39:43;;;;;;;7.47;1.25;;;16.60;99.90;;;;;;5151600;27;20046;-47
2023/07/15 04:42:09;;;;;;;5.00;1.15;;;16.60;99.90;;;;;;5152558;27;20072;-42
2023/07/15 04:44:35;;;;;;;4.68;1.20;;;16.60;99.90;;;;;;5152215;27;20011;-41
2023/07/15 04:47:00;;;;;;;9.32;1.50;;;16.80;99.90;;;;;;5137696;27;20106;-45
2023/07/15 04:49:26;;;;;;;7.53;1.48;;;16.60;99.90;;;;;;5152202;27;20382;-44
2023/07/15 04:51:52;;;;;;;7.55;1.55;;;16.70;99.90;;;;;;5152149;27;20109;-44
2023/07/15 04:54:18;;;;;;;8.82;1.30;;;16.70;99.90;;;;;;5152043;27;20490;-42
2023/07/15 04:56:44;;;;;;;3.13;1.20;;;16.70;99.90;;;;;;5152164;27;20043;-45
2023/07/15 04:59:10;;;;;;;8.48;2.28;;;16.70;99.90;;;;;;5152402;27;20022;-41
2023/07/15 05:01:36;;;;;;;3.25;1.08;;;16.70;99.90;;;;;;5152385;27;20027;-42
2023/07/15 05:04:02;;;;;;;6.20;1.25;;;16.80;99.90;;;;;;5152153;27;20071;-41
2023/07/15 05:06:28;;;;;;;7.03;1.17;;;16.70;99.90;;;;;;5152013;27;20030;-41
2023/07/15 05:08:54;;;;;;;7.55;1.50;;;16.70;99.90;;;;;;5151982;27;20030;-47
2023/07/15 05:11:20;;;;;;;6.80;1.30;;;16.70;99.90;;;;;;5152243;27;20026;-42
2023/07/15 05:13:48;;;;;;;5.47;1.08;;;16.70;99.90;;;;;;5151877;27;20071;-46
2023/07/15 05:16:14;;;;;;;12.25;1.50;;;16.70;99.90;;;;;;5151989;27;20105;-48
2023/07/15 05:18:40;;;;;;;5.13;1.30;;;16.70;99.90;;;;;;5152070;27;20113;-46
2023/07/15 05:21:06;;;;;;;9.57;1.60;;;16.80;99.90;;;;;;5123079;27;20015;-42
2023/07/15 05:23:32;;;;;;;4.15;1.33;;;16.70;99.90;;;;;;5152092;27;20055;-42
2023/07/15 05:26:01;;;;;;;2.95;1.05;;;16.70;99.90;;;;;;5151824;27;20019;-41
2023/07/15 05:28:33;;;;;;;5.07;1.40;;;16.70;99.90;;;;;;5152182;27;20113;-41
2023/07/15 05:30:59;;;;;;;4.05;1.50;;;16.70;99.90;;;;;;5151616;27;20027;-44
2023/07/15 05:33:25;;;;;;;6.40;1.05;;;16.80;99.90;;;;;;5151760;27;20110;-43
2023/07/15 05:35:52;;;;;;;5.55;1.52;;;16.80;99.90;;;;;;5151544;27;20105;-44
2023/07/15 05:38:22;;;;;;;7.00;1.67;;;16.80;99.90;;;;;;5151632;27;20103;-43
2023/07/15 05:40:47;;;;;;;4.40;1.38;;;16.70;99.90;;;;;;5151603;27;20425;-45
2023/07/15 05:43:13;;;;;;;6.55;1.40;;;16.80;99.90;;;;;;5151727;27;20035;-43
2023/07/15 05:45:39;;;;;;;3.38;1.33;;;16.80;99.90;;;;;;5143192;27;20063;-44
2023/07/15 05:48:05;;;;;;;3.63;1.25;;;16.80;99.90;;;;;;5143963;27;20063;-41
2023/07/15 05:50:34;;;;;;;4.88;1.50;;;16.80;99.90;;;;;;5152713;27;20030;-45
2023/07/15 05:53:00;;;;;;;5.72;1.13;;;16.80;99.90;;;;;;5154769;27;20026;-47
2023/07/15 05:55:26;;;;;;;8.20;1.75;;;16.80;99.90;;;;;;5155299;27;20042;-44
2023/07/15 05:57:51;;;;;;;3.92;0.98;;;16.80;99.90;;;;;;5155791;27;20107;-45
2023/07/15 06:00:17;;;;;;;3.78;1.70;;;16.80;99.90;;;;;;5155574;27;20110;-42
2023/07/15 06:02:43;;;;;;;10.00;1.27;;;16.90;99.90;;;;;;5155778;27;20105;-46
2023/07/15 06:05:09;;;;;;;4.57;1.33;;;16.80;99.90;;;;;;5155565;27;20440;-50
2023/07/15 06:07:35;;;;;;;3.70;1.13;;;16.90;99.90;;;;;;5155907;27;20030;-52
2023/07/15 06:10:01;;;;;;;5.82;1.27;;;16.90;99.90;;;;;;5155710;27;20023;-42
2023/07/15 06:12:27;;;;;;;6.47;1.30;;;16.90;99.90;;;;;;5155434;27;20105;-43
2023/07/15 06:14:53;;;;;;;4.32;1.10;;;16.90;99.90;;;;;;5155518;27;20105;-47
2023/07/15 06:17:18;;;;;;;3.15;1.20;;;17.00;99.90;;;;;;5135765;27;20051;-57
2023/07/15 06:19:44;;;;;;;7.13;1.30;;;17.00;99.90;;;;;;5134863;27;20023;-45
2023/07/15 06:22:09;;;;;;;5.25;0.95;;;16.90;99.90;;;;;;5134313;27;20594;-45
2023/07/15 06:24:35;;;;;;;6.85;1.40;;;17.00;99.90;;;;;;5134551;27;20011;-47
2023/07/15 06:27:01;;;;;;;6.00;1.10;;;16.90;99.90;;;;;;5134460;27;20016;-45
2023/07/15 06:29:27;;;;;;;2.15;1.10;;;16.90;99.90;;;;;;5135752;27;20029;-52
2023/07/15 06:31:53;;;;;;;2.67;1.10;;;16.90;99.90;;;;;;5143687;27;20153;-44
2023/07/15 06:34:18;;;;;;;4.45;1.25;;;16.90;99.90;;;;;;5134304;27;20110;-42
2023/07/15 06:36:45;;;;;;;4.93;1.25;;;16.90;99.90;;;;;;5134048;27;20035;-41
2023/07/15 06:39:11;;;;;;;2.92;1.10;;;16.90;99.90;;;;;;5134194;27;20024;-51
2023/07/15 06:41:36;;;;;;;6.75;1.10;;;17.00;99.90;;;;;;5134104;27;20029;-43
2023/07/15 06:44:02;;;;;;;4.53;1.38;;;16.90;99.90;;;;;;5132617;27;20080;-46
2023/07/15 06:46:28;;;;;;;13.93;1.83;;;17.00;99.90;;;;;;5134885;27;20027;-47
2023/07/15 06:48:55;;;;;;;9.27;1.42;;;17.00;99.90;;;;;;5147354;27;20038;-47
2023/07/15 06:51:22;;;;;;;6.20;1.40;;;16.90;99.90;;;;;;5148323;27;20042;-44
2023/07/15 06:53:48;;;;;;;4.72;1.40;;;16.90;99.90;;;;;;5137098;27;20015;-49
2023/07/15 06:56:13;;;;;;;5.30;1.15;;;16.90;99.90;;;;;;5151437;27;20050;-47
2023/07/15 06:58:39;;;;;;;7.10;1.70;;;16.90;99.90;;;;;;5147288;27;20110;-51
2023/07/15 07:01:05;;;;;;;11.88;2.08;;;17.00;99.90;;;;;;5135183;27;20501;-48
2023/07/15 07:03:32;;;;;;;9.02;1.25;;;17.10;99.90;;;;;;5144814;27;20098;-41
2023/07/15 07:05:58;;;;;;;4.05;1.50;;;17.10;99.90;;;;;;5144422;27;20071;-40
2023/07/15 07:08:23;;;;;;;2.85;1.20;;;17.20;99.90;;;;;;5150192;27;20102;-51
2023/07/15 07:10:52;;;;;;;5.82;0.80;;;17.10;99.90;;;;;;5145288;27;20020;-45
2023/07/15 07:13:21;;;;;;;3.80;1.15;;;17.00;99.90;;;;;;5133573;27;20023;-41
2023/07/15 07:15:47;;;;;;;3.28;1.67;;;16.90;99.90;;;;;;5133082;27;20035;-42
2023/07/15 07:18:13;;;;;;;3.05;0.98;;;16.90;99.90;;;;;;5133463;27;20466;-48
2023/07/15 07:20:39;;;;;;;8.18;1.10;;;16.80;99.90;;;;;;5133246;27;20027;-44
2023/07/15 07:23:05;;;;;;;3.70;1.10;;;16.80;99.90;;;;;;5133358;27;20553;-44
2023/07/15 07:25:30;;;;;;;3.40;1.20;;;16.70;99.90;;;;;;5133115;27;20031;-41
2023/07/15 07:27:56;;;;;;;2.42;0.68;;;16.80;99.90;;;;;;5133267;27;20025;-46
2023/07/15 07:30:22;;;;;;;5.25;0.63;;;16.70;99.90;;;;;;5133198;27;20429;-41
2023/07/15 07:32:48;;;;;;;5.13;1.00;;;16.70;99.90;;;;;;5132891;27;20042;-50
2023/07/15 07:35:14;;;;;;;4.00;0.77;;;16.70;99.90;;;;;;5131742;27;20015;-48
2023/07/15 07:37:40;;;;;;;3.90;0.80;;;16.70;99.90;;;;;;5132951;27;20527;-43
2023/07/15 07:40:09;;;;;;;3.50;0.95;;;16.60;99.90;;;;;;5132510;27;20015;-48
2023/07/15 07:42:35;;;;;;;;;;;16.60;99.90;;;;;;5133354;27;20055;-47
2023/07/15 07:45:01;;;;;;;3.00;0.85;;;16.60;99.90;;;;;;5132387;27;20380;-42
2023/07/15 07:47:26;;;;;;;5.38;1.20;;;16.50;99.90;;;;;;5142256;27;20364;-42
2023/07/15 07:49:52;;;;;;;2.83;0.95;;;16.40;99.90;;;;;;5153300;27;20113;-43
2023/07/15 07:52:18;;;;;;;5.88;1.00;;;16.40;99.90;;;;;;5153275;27;20015;-44
2023/07/15 07:54:43;;;;;;;6.43;1.40;;;16.40;99.90;;;;;;5153031;27;20050;-42
2023/07/15 07:57:10;;;;;;;4.22;1.02;;;16.40;99.90;;;;;;5152697;27;20033;-48
2023/07/15 07:59:35;;;;;;;5.45;1.10;;;16.50;99.90;;;;;;5153404;27;20026;-48
2023/07/15 08:02:01;;;;;;;1.95;0.85;;;16.60;99.90;;;;;;5151780;27;20022;-44
2023/07/15 08:04:26;;;;;;;3.80;0.75;;;17.00;99.90;;;;;;5153030;27;20076;-45
2023/07/15 08:06:52;;;;;;;2.33;0.95;;;17.50;99.90;;;;;;5152977;27;20026;-44
2023/07/15 08:09:18;;;;;;;6.13;1.63;;;17.80;99.90;;;;;;5152870;27;20083;-42
2023/07/15 08:11:44;;;;;;;4.38;1.23;;;18.00;99.90;;;;;;5153010;27;20030;-44
2023/07/15 08:14:10;;;;;;;4.20;1.42;;;18.30;99.90;;;;;;5152594;27;20015;-43
2023/07/15 08:16:39;;;;;;;6.63;1.02;;;18.40;99.90;;;;;;5152906;27;20041;-42
2023/07/15 08:19:06;;;;;;;2.83;0.90;;;18.50;99.90;;;;;;5152816;27;20023;-47
2023/07/15 08:21:32;;;;;;;3.38;0.98;;;18.60;99.90;;;;;;5152994;27;20501;-45
2023/07/15 08:23:58;;;;;;;6.03;1.00;;;18.70;99.90;;;;;;5152651;27;20071;-51
2023/07/15 08:26:25;;;;;;;4.30;1.15;;;18.70;99.90;;;;;;5152771;27;20023;-44
2023/07/15 08:28:51;;;;;;;6.10;0.95;;;18.80;99.90;;;;;;5152723;27;20011;-44
2023/07/15 08:31:17;;;;;;;5.72;1.05;;;19.00;99.90;;;;;;5152566;27;20076;-45
2023/07/15 08:33:43;;;;;;;4.88;1.30;;;19.30;99.90;;;;;;5152774;27;20040;-42
2023/07/15 08:36:09;;;;;;;4.45;0.95;;;19.40;99.90;;;;;;5152643;27;20494;-47
2023/07/15 08:38:34;;;;;;;4.18;1.17;;;19.30;99.90;;;;;;5152717;27;20026;-44
2023/07/15 08:41:01;;;;;;;5.60;0.95;;;19.20;99.90;;;;;;5152323;27;20030;-48
2023/07/15 08:43:30;;;;;;;7.00;1.60;;;19.20;99.90;;;;;;5152482;27;20098;-45
2023/07/15 08:46:00;;;;;;;;;;;19.50;99.90;;;;;;5141993;27;20106;-42
2023/07/15 08:48:27;;;;;;;1.98;1.08;;;20.20;99.90;;;;;;5145586;27;19904;-46
2023/07/15 08:50:56;;;;;;;6.60;2.05;;;20.20;99.90;;;;;;5130270;27;20027;-44
2023/07/15 08:53:25;;;;;;;7.55;1.65;;;20.20;99.90;;;;;;5130760;27;20023;-42
2023/07/15 08:55:54;;;;;;;7.15;1.38;;;20.20;99.90;;;;;;5141465;27;20058;-51
2023/07/15 08:58:20;;;;;;;3.83;0.90;;;20.20;99.90;;;;;;5145962;27;20075;-46
2023/07/15 09:00:46;;;;;;;4.82;1.30;;;20.00;99.90;;;;;;5136964;27;20068;-42
2023/07/15 09:03:12;;;;;;;5.68;0.93;;;19.70;99.90;;;;;;5146632;27;20026;-50
2023/07/15 09:05:38;;;;;;;2.55;1.20;;;19.50;99.90;;;;;;5144214;27;20019;-48
2023/07/15 09:08:12;;;;;;;4.80;1.40;;;19.30;99.90;;;;;;5131442;27;20015;-49
2023/07/15 09:10:56;;;;;;;7.18;1.55;;;19.20;99.90;;;;;;5134097;27;20020;-49
2023/07/15 09:13:26;;;;;;;5.80;1.52;;;19.10;99.90;;;;;;5133052;27;20020;-49
2023/07/15 09:15:53;;;;;;;6.95;1.50;;;19.30;99.90;;;;;;5139225;27;20120;-41
2023/07/15 09:18:19;;;;;;;5.03;1.20;;;19.50;99.90;;;;;;5144577;27;20019;-49
2023/07/15 09:20:45;;;;;;;4.07;1.30;;;19.60;99.90;;;;;;5134948;27;20045;-43
2023/07/15 09:23:11;;;;;;;11.77;1.80;;;19.70;99.90;;;;;;5147606;27;20015;-42
2023/07/15 09:25:37;;;;;;;8.98;1.33;;;19.80;99.90;;;;;;5143968;27;20027;-44
2023/07/15 09:28:03;;;;;;;5.95;1.30;;;20.10;99.90;;;;;;5142786;27;20006;-42
2023/07/15 09:30:28;;;;;;;3.78;1.20;;;20.50;99.90;;;;;;5135596;27;20663;-52
2023/07/15 09:32:54;;;;;;;4.88;1.02;;;21.20;99.90;;;;;;5149540;27;20022;-48
2023/07/15 09:35:23;;;;;;;5.97;1.67;;;21.30;99.90;;;;;;5136808;27;20027;-48
2023/07/15 09:37:48;;;;;;;4.30;1.08;;;21.30;99.90;;;;;;5149581;27;20050;-54
2023/07/15 09:40:14;;;;;;;7.38;1.30;;;21.10;99.90;;;;;;5148752;27;20073;-46
2023/07/15 09:42:54;;;;;;;3.88;1.20;;;21.30;99.90;;;;;;5140190;27;20029;-53
2023/07/15 09:45:36;;;;;;;6.20;1.20;;;21.10;99.90;;;;;;5149502;27;20015;-45
2023/07/15 09:48:16;;;;;;;3.78;1.30;;;21.10;99.90;;;;;;5153564;27;20102;-48
2023/07/15 09:50:42;;;;;;;4.13;1.13;;;20.90;99.90;;;;;;5127292;27;20023;-47
2023/07/15 09:53:09;;;;;;;4.78;1.25;;;20.40;99.90;;;;;;5135080;27;20038;-50
2023/07/15 09:55:36;;;;;;;6.15;1.63;;;20.20;99.90;;;;;;5135083;27;20043;-46
2023/07/15 09:58:14;;;;;;;5.32;1.58;;;20.20;99.90;;;;;;5143021;27;20501;-41
2023/07/15 10:00:47;;;;;;;3.17;1.02;;;20.30;99.90;;;;;;5135011;27;20027;-42
2023/07/15 10:03:23;;;;;;;4.13;1.10;;;20.50;99.90;;;;;;5134799;27;20042;-45
2023/07/15 10:05:50;;;;;;;6.78;1.10;;;20.60;99.90;;;;;;5134548;27;20019;-43
2023/07/15 10:08:16;;;;;;;6.43;1.40;;;20.30;99.90;;;;;;5134443;27;20021;-42
2023/07/15 10:10:42;;;;;;;4.85;0.85;;;19.90;99.90;;;;;;5134521;27;20019;-50
2023/07/15 10:13:10;;;;;;;4.63;1.10;;;19.90;99.90;;;;;;5134638;27;20008;-49
2023/07/15 10:15:36;;;;;;;6.35;1.33;;;20.30;99.90;;;;;;5134528;27;20060;-45
2023/07/15 10:18:18;;;;;;;10.68;1.27;;;21.10;99.90;;;;;;5134269;27;20015;-43
2023/07/15 10:20:52;;;;;;;4.28;0.85;;;21.50;99.90;;;;;;5134403;27;20529;-45
2023/07/15 10:23:28;;;;;;;4.85;1.25;;;21.60;99.90;;;;;;5134518;27;20438;-49
2023/07/15 10:26:20;;;;;;;7.57;1.30;;;21.20;99.90;;;;;;5134369;27;20031;-43
2023/07/15 10:28:52;;;;;;;2.45;0.80;;;20.90;99.90;;;;;;5134282;27;20487;-42
2023/07/15 10:31:24;;;;;;;6.25;1.75;;;20.80;99.90;;;;;;5134270;27;20482;-50
2023/07/15 10:33:54;;;;;;;6.78;0.88;;;20.90;99.90;;;;;;5134253;27;20046;-44
2023/07/15 10:36:44;;;;;;;5.05;1.20;;;21.40;99.90;;;;;;5134215;27;20031;-43
2023/07/15 10:39:10;;;;;;;6.43;1.60;;;21.60;99.90;;;;;;5139607;27;20023;-49
2023/07/15 10:41:41;;;;;;;9.48;1.35;;;21.50;99.90;;;;;;5150269;27;20023;-46
2023/07/15 10:44:23;;;;;;;7.68;1.25;;;21.40;99.90;;;;;;5150990;27;20381;-44
2023/07/15 10:47:00;;;;;;;8.85;1.25;;;20.90;99.90;;;;;;5133045;27;20092;-41
2023/07/15 10:49:26;;;;;;;4.60;1.10;;;20.50;99.90;;;;;;5152423;27;20069;-44
2023/07/15 10:51:54;;;;;;;6.30;1.30;;;20.30;99.90;;;;;;5143666;27;20057;-53
2023/07/15 10:54:28;;;;;;;5.85;0.98;;;20.30;99.90;;;;;;5142095;27;20071;-46
2023/07/15 10:56:54;;;;;;;4.57;1.02;;;20.40;99.90;;;;;;5143699;27;20367;-45
2023/07/15 10:59:37;;;;;;;7.85;1.33;;;20.50;99.90;;;;;;5135920;27;20109;-43
2023/07/15 11:02:03;;;;;;;5.90;1.15;;;21.30;99.90;;;;;;5135910;27;20050;-42
2023/07/15 11:04:30;;;;;;;10.88;1.23;;;21.90;99.90;;;;;;5140632;27;20031;-42
2023/07/15 11:07:05;;;;;;;3.67;1.23;;;22.20;99.90;;;;;;5127174;27;20022;-42
2023/07/15 11:09:31;;;;;;;4.70;1.35;;;22.10;99.90;;;;;;5139549;27;20059;-45
2023/07/15 11:11:56;;;;;;;4.45;1.00;;;22.10;99.90;;;;;;5143083;27;20023;-44
2023/07/15 11:14:28;;;;;;;3.22;0.90;;;22.00;99.90;;;;;;5136972;27;20026;-43
2023/07/15 11:16:58;;;;;;;6.13;1.10;;;22.20;99.90;;;;;;5136258;27;20027;-43
2023/07/15 11:19:27;;;;;;;3.17;0.95;;;22.10;99.90;;;;;;5121980;27;20024;-41
2023/07/15 11:21:54;;;;;;;7.30;1.52;;;22.20;99.90;;;;;;5137491;27;20051;-43
2023/07/15 11:24:25;;;;;;;4.57;1.42;;;22.20;99.90;;;;;;5135931;27;20030;-43
2023/07/15 11:26:51;;;;;;;3.65;0.80;;;22.20;99.90;;;;;;5142202;27;20079;-46
2023/07/15 11:29:22;;;;;;;6.50;1.23;;;22.40;99.90;;;;;;5132853;27;20019;-42
2023/07/15 11:31:52;;;;;;;3.72;1.20;;;22.60;99.90;;;;;;5142293;27;20069;-41
2023/07/15 11:34:20;;;;;;;8.20;1.45;;;22.50;99.90;;;;;;5133135;27;20027;-44
2023/07/15 11:36:47;;;;;;;4.55;1.20;;;22.30;99.90;;;;;;5126477;27;20042;-43
2023/07/15 11:39:14;;;;;;;3.33;0.80;;;22.00;99.90;;;;;;5136014;27;20030;-42
2023/07/15 11:41:39;;;;;;;5.32;1.13;;;21.80;99.90;;;;;;5132891;27;20026;-41
2023/07/15 11:44:14;;;;;;;2.83;0.82;;;22.00;99.90;;;;;;5151458;27;20023;-43
2023/07/15 11:46:41;;;;;;;5.38;1.75;;;22.10;99.90;;;;;;5134905;27;20046;-41
2023/07/15 11:49:07;;;;;;;3.60;0.77;;;22.30;99.90;;;;;;5132443;27;20045;-44
2023/07/15 11:51:35;;;;;;;6.85;1.25;;;22.40;99.90;;;;;;5143607;27;20058;-41
2023/07/15 11:54:01;;;;;;;6.07;1.60;;;22.90;99.90;;;;;;5143877;27;20026;-42
2023/07/15 11:56:40;;;;;;;4.68;1.30;;;23.30;99.90;;;;;;5139601;27;20039;-40
2023/07/15 11:59:31;;;;;;;2.45;0.95;;;23.50;99.90;;;;;;5127600;27;20015;-41
2023/07/15 12:02:01;;;;;;;4.68;0.98;;;23.50;99.90;;;;;;5139854;27;20485;-42
2023/07/15 12:04:28;;;;;;;4.57;1.30;;;23.60;99.90;;;;;;5140369;27;20080;-43
2023/07/15 12:06:54;;;;;;;4.38;1.15;;;23.60;99.90;;;;;;5133260;27;20054;-44
2023/07/15 12:09:27;;;;;;;7.55;1.15;;;23.30;99.90;;;;;;5148753;27;20057;-43
2023/07/15 12:11:53;;;;;;;4.68;1.10;;;23.00;99.90;;;;;;5149683;27;20054;-42
2023/07/15 12:14:19;;;;;;;6.72;1.13;;;23.20;99.90;;;;;;5141541;27;20047;-41
2023/07/15 12:16:45;;;;;;;9.32;1.48;;;23.30;99.90;;;;;;5129307;27;20069;-44
2023/07/15 12:19:13;;;;;;;7.43;1.23;;;23.50;99.90;;;;;;5136025;27;20295;-41
2023/07/15 12:21:39;;;;;;;3.40;1.00;;;23.10;99.90;;;;;;5135979;27;20039;-45
2023/07/15 12:24:05;;;;;;;5.28;1.27;;;23.10;99.90;;;;;;5137898;27;20053;-42
2023/07/15 12:26:31;;;;;;;8.05;1.23;;;23.30;99.90;;;;;;5135500;27;20427;-41
2023/07/15 12:28:57;;;;;;;5.80;1.60;;;23.30;99.90;;;;;;5139519;27;20019;-47
2023/07/15 12:31:23;;;;;;;5.50;1.35;;;23.20;99.90;;;;;;5131458;27;20453;-41
2023/07/15 12:33:49;;;;;;;10.85;1.48;;;22.70;99.90;;;;;;5132047;27;20015;-44
2023/07/15 12:36:16;;;;;;;4.38;0.93;;;22.80;99.90;;;;;;5131564;27;20434;-43
2023/07/15 12:38:42;;;;;;;4.43;1.20;;;22.70;99.90;;;;;;5149626;27;20489;-46
2023/07/15 12:41:09;;;;;;;3.90;1.00;;;22.50;99.90;;;;;;5134125;27;20019;-47
2023/07/15 12:43:35;;;;;;;4.40;1.17;;;22.50;99.90;;;;;;5130951;27;20024;-41
2023/07/15 12:46:01;;;;;;;7.03;1.33;;;22.30;99.90;;;;;;5140652;27;20401;-42
2023/07/15 12:48:27;;;;;;;4.53;1.00;;;22.70;99.90;;;;;;5143638;27;20486;-47